Time;durP1;ratioP1;P1;durP2;ratioP2;P2;SDS_P1;SDS_P2;PMS_P1;PMS_P2;Temp;Humidity;BMP_temperature;BMP_pressure;BME280_temperature;BME280_humidity;BME280_pressure;Samples;Min_cycle;Max_cycle;Signal;HPM_P1;HPM_P2
2022/01/02 00:00:46;;;;;;;27.60;11.63;;;;;;;;;;5067070;28;20107;-59
2022/01/02 00:03:18;;;;;;;38.42;11.02;;;;;;;;;;5063260;28;20038;-56
2022/01/02 00:05:44;;;;;;;28.58;9.65;;;;;;;;;;5066003;28;20020;-60
2022/01/02 00:08:11;;;;;;;68.85;10.65;;;;;;;;;;5066081;28;20063;-60
2022/01/02 00:10:49;;;;;;;76.00;10.75;;;;;;;;;;5062754;28;20483;-58
2022/01/02 00:13:23;;;;;;;61.20;10.57;;;;;;;;;;5063947;28;20020;-58
2022/01/02 00:15:51;;;;;;;43.15;10.70;;;;;;;;;;5062276;28;20666;-60
2022/01/02 00:18:16;;;;;;;52.22;10.15;;;;;;;;;;5066612;28;20023;-55
2022/01/02 00:20:47;;;;;;;31.33;10.32;;;;;;;;;;5047532;28;20083;-60
2022/01/02 00:23:19;;;;;;;27.45;9.80;;;;;;;;;;5064316;28;20036;-60
2022/01/02 00:25:50;;;;;;;28.98;10.80;;;;;;;;;;5068734;28;20029;-56
2022/01/02 00:28:17;;;;;;;31.52;10.63;;;;;;;;;;5062070;28;20102;-59
2022/01/02 00:30:44;;;;;;;36.15;10.05;;;;;;;;;;5064574;28;20634;-60
2022/01/02 00:33:10;;;;;;;27.85;11.15;;;;;;;;;;5063035;28;20110;-59
2022/01/02 00:35:36;;;;;;;27.38;10.07;;;;;;;;;;5063843;28;20657;-58
2022/01/02 00:38:02;;;;;;;48.33;10.60;;;;;;;;;;5066151;28;20394;-61
2022/01/02 00:40:29;;;;;;;17.23;8.95;;;;;;;;;;5064311;28;20056;-59
2022/01/02 00:43:03;;;;;;;34.38;10.00;;;;;;;;;;5064747;28;20055;-60
2022/01/02 00:45:40;;;;;;;64.22;11.73;;;;;;;;;;5064515;28;20119;-58
2022/01/02 00:48:19;;;;;;;60.53;11.32;;;;;;;;;;5063244;28;20432;-59
2022/01/02 00:50:50;;;;;;;55.88;11.80;;;;;;;;;;5066255;28;20085;-57
2022/01/02 00:53:18;;;;;;;44.10;10.35;;;;;;;;;;5061889;28;20597;-59
2022/01/02 00:55:46;;;;;;;27.05;10.95;;;;;;;;;;5064276;28;20031;-59
2022/01/02 00:58:16;;;;;;;49.17;11.10;;;;;;;;;;5063598;28;20652;-58
2022/01/02 01:00:47;;;;;;;80.63;12.27;;;;;;;;;;5061792;28;20024;-58
2022/01/02 01:03:21;;;;;;;39.78;11.07;;;;;;;;;;5064054;28;20481;-58
2022/01/02 01:05:48;;;;;;;27.70;11.93;;;;;;;;;;5068074;28;20059;-59
2022/01/02 01:08:13;;;;;;;27.30;12.95;;;;;;;;;;5067852;28;20064;-58
2022/01/02 01:10:40;;;;;;;42.25;12.63;;;;;;;;;;5067752;28;20067;-58
2022/01/02 01:13:08;;;;;;;54.17;12.45;;;;;;;;;;5064112;28;20068;-55
2022/01/02 01:15:35;;;;;;;32.08;11.80;;;;;;;;;;5069020;28;20033;-59
2022/01/02 01:18:02;;;;;;;48.42;12.60;;;;;;;;;;5069064;28;20024;-59
2022/01/02 01:20:30;;;;;;;68.30;11.82;;;;;;;;;;5068947;28;20036;-55
2022/01/02 01:22:56;;;;;;;47.80;12.25;;;;;;;;;;5070296;28;20082;-58
2022/01/02 01:25:23;;;;;;;35.10;12.52;;;;;;;;;;5065875;28;20036;-58
2022/01/02 01:27:50;;;;;;;47.83;11.38;;;;;;;;;;5053791;28;20102;-60
2022/01/02 01:30:18;;;;;;;31.27;11.60;;;;;;;;;;5068625;28;20120;-59
2022/01/02 01:32:45;;;;;;;55.40;11.57;;;;;;;;;;5067597;28;20643;-58
2022/01/02 01:35:11;;;;;;;32.15;11.68;;;;;;;;;;5068274;28;20060;-57
2022/01/02 01:37:38;;;;;;;42.42;10.82;;;;;;;;;;5067504;28;20024;-59
2022/01/02 01:40:08;;;;;;;50.67;10.30;;;;;;;;;;5068863;28;20087;-56
2022/01/02 01:42:39;;;;;;;34.65;10.75;;;;;;;;;;5066322;28;20430;-58
2022/01/02 01:48:07;;;;;;;51.65;12.13;;;;;;;;;;5068783;28;20040;-52
2022/01/02 01:50:36;;;;;;;64.95;12.50;;;;;;;;;;5066531;28;20036;-57
2022/01/02 01:53:02;;;;;;;27.40;12.30;;;;;;;;;;5070596;28;20032;-55
2022/01/02 01:55:28;;;;;;;57.60;12.05;;;;;;;;;;5067540;28;20035;-61
2022/01/02 01:57:54;;;;;;;69.47;11.88;;;;;;;;;;5068213;28;20028;-58
2022/01/02 02:00:22;;;;;;;41.58;12.23;;;;;;;;;;5068996;28;20469;-58
2022/01/02 02:02:48;;;;;;;32.58;11.77;;;;;;;;;;5066803;28;21136;-60
2022/01/02 02:05:13;;;;;;;71.78;12.02;;;;;;;;;;5065970;28;20040;-60
2022/01/02 02:07:41;;;;;;;35.03;10.98;;;;;;;;;;5066017;28;20032;-60
2022/01/02 02:10:24;;;;;;;32.88;12.13;;;;;;;;;;5069260;28;20059;-60
2022/01/02 02:12:52;;;;;;;56.95;12.02;;;;;;;;;;5067643;28;20021;-60
2022/01/02 02:15:19;;;;;;;34.13;11.15;;;;;;;;;;5063325;28;20127;-55
2022/01/02 02:17:46;;;;;;;26.25;10.80;;;;;;;;;;5069944;28;20032;-60
2022/01/02 02:20:18;;;;;;;41.20;12.82;;;;;;;;;;5066232;28;20089;-58
2022/01/02 02:22:48;;;;;;;52.72;11.50;;;;;;;;;;5067027;28;20419;-60
2022/01/02 02:25:16;;;;;;;23.83;11.57;;;;;;;;;;5066766;28;20089;-60
2022/01/02 02:27:54;;;;;;;27.13;11.13;;;;;;;;;;5064425;28;20047;-58
2022/01/02 02:30:21;;;;;;;27.02;10.63;;;;;;;;;;5066937;28;20116;-57
2022/01/02 02:32:47;;;;;;;40.38;11.27;;;;;;;;;;5067994;28;20036;-60
2022/01/02 02:35:13;;;;;;;38.85;10.73;;;;;;;;;;5067784;28;20028;-61
2022/01/02 02:37:45;;;;;;;45.78;10.75;;;;;;;;;;5064766;28;20111;-60
2022/01/02 02:40:14;;;;;;;45.50;13.43;;;;;;;;;;5064975;28;20027;-60
2022/01/02 02:42:51;;;;;;;18.55;10.95;;;;;;;;;;5068182;28;20024;-60
2022/01/02 02:51:09;;;;;;;32.17;10.32;;;;;;;;;;5066066;28;20052;-60
2022/01/02 02:53:38;;;;;;;28.80;9.95;;;;;;;;;;5066239;28;20439;-59
2022/01/02 02:56:14;;;;;;;34.65;11.38;;;;;;;;;;5068221;28;20032;-61
2022/01/02 02:58:41;;;;;;;22.80;10.98;;;;;;;;;;5066040;28;20091;-60
2022/01/02 03:01:08;;;;;;;25.95;11.27;;;;;;;;;;5067704;28;20028;-60
2022/01/02 03:03:34;;;;;;;25.30;11.38;;;;;;;;;;5068334;28;20028;-60
2022/01/02 03:05:59;;;;;;;28.52;11.70;;;;;;;;;;5051320;28;20047;-60
2022/01/02 03:08:26;;;;;;;25.20;11.77;;;;;;;;;;5064460;28;20043;-60
2022/01/02 03:10:52;;;;;;;38.50;10.45;;;;;;;;;;5065382;28;20082;-60
2022/01/02 03:13:17;;;;;;;22.30;9.93;;;;;;;;;;5068141;28;20066;-61
2022/01/02 03:15:42;;;;;;;20.42;10.95;;;;;;;;;;5066729;28;20021;-60
2022/01/02 03:18:08;;;;;;;18.33;9.70;;;;;;;;;;5048219;28;20024;-57
2022/01/02 03:20:33;;;;;;;20.67;10.07;;;;;;;;;;5068355;28;20040;-57
2022/01/02 03:22:58;;;;;;;21.13;10.55;;;;;;;;;;5066220;28;20024;-61
2022/01/02 03:25:24;;;;;;;21.92;9.68;;;;;;;;;;5067323;28;20450;-61
2022/01/02 03:27:49;;;;;;;27.40;9.82;;;;;;;;;;5068145;28;20044;-61
2022/01/02 03:30:15;;;;;;;25.08;9.63;;;;;;;;;;5066777;28;20066;-60
2022/01/02 03:32:40;;;;;;;19.08;9.10;;;;;;;;;;5067985;28;20024;-58
2022/01/02 03:35:07;;;;;;;17.10;9.25;;;;;;;;;;5063380;28;20025;-59
2022/01/02 03:37:33;;;;;;;19.50;10.32;;;;;;;;;;5066736;28;20051;-59
2022/01/02 03:40:00;;;;;;;21.25;10.05;;;;;;;;;;5064380;28;20523;-51
2022/01/02 03:42:25;;;;;;;19.83;9.05;;;;;;;;;;5063047;28;20044;-58
2022/01/02 03:44:51;;;;;;;21.35;9.45;;;;;;;;;;5066479;28;20023;-56
2022/01/02 03:47:16;;;;;;;17.20;9.23;;;;;;;;;;5065643;28;20120;-59
2022/01/02 03:49:42;;;;;;;27.42;9.70;;;;;;;;;;5067026;28;20040;-56
2022/01/02 03:52:08;;;;;;;16.35;9.25;;;;;;;;;;5067992;28;20021;-57
2022/01/02 03:54:33;;;;;;;21.90;9.93;;;;;;;;;;5063246;28;20028;-59
2022/01/02 03:56:59;;;;;;;16.40;9.52;;;;;;;;;;5063013;28;20032;-58
2022/01/02 03:59:24;;;;;;;17.55;9.02;;;;;;;;;;5062269;28;20384;-53
2022/01/02 04:01:49;;;;;;;22.15;9.48;;;;;;;;;;5065408;28;20547;-58
2022/01/02 04:04:16;;;;;;;25.48;9.82;;;;;;;;;;5064168;28;20032;-56
2022/01/02 04:06:42;;;;;;;36.03;9.68;;;;;;;;;;5064269;28;20489;-58
2022/01/02 04:09:07;;;;;;;19.13;10.02;;;;;;;;;;5065196;28;20052;-58
2022/01/02 04:11:32;;;;;;;27.27;9.65;;;;;;;;;;5063706;28;20036;-58
2022/01/02 04:13:58;;;;;;;15.27;8.48;;;;;;;;;;5061725;28;20043;-56
2022/01/02 04:16:23;;;;;;;19.58;8.60;;;;;;;;;;5066845;28;20396;-56
2022/01/02 04:18:50;;;;;;;13.60;8.35;;;;;;;;;;5064842;28;20029;-56
2022/01/02 04:21:15;;;;;;;28.85;9.50;;;;;;;;;;5062698;28;20047;-56
2022/01/02 04:23:41;;;;;;;20.00;9.27;;;;;;;;;;5065814;28;20392;-58
2022/01/02 04:26:07;;;;;;;24.50;9.00;;;;;;;;;;5062066;28;20437;-52
2022/01/02 04:28:32;;;;;;;23.58;9.95;;;;;;;;;;5064784;28;20631;-58
2022/01/02 04:30:58;;;;;;;18.70;9.38;;;;;;;;;;5064720;28;20897;-57
2022/01/02 04:33:23;;;;;;;18.75;8.82;;;;;;;;;;5064076;28;20070;-57
2022/01/02 04:35:48;;;;;;;14.15;8.80;;;;;;;;;;5065455;28;20401;-58
2022/01/02 04:38:14;;;;;;;26.02;8.95;;;;;;;;;;5062525;28;20102;-59
2022/01/02 04:40:40;;;;;;;20.88;9.50;;;;;;;;;;5064220;28;20032;-59
2022/01/02 04:43:06;;;;;;;19.85;9.60;;;;;;;;;;5065814;28;20575;-59
2022/01/02 04:45:32;;;;;;;16.23;9.15;;;;;;;;;;5064312;28;20044;-59
2022/01/02 04:47:57;;;;;;;19.65;9.38;;;;;;;;;;5064575;28;20559;-58
2022/01/02 04:50:23;;;;;;;19.80;9.55;;;;;;;;;;5066227;28;20033;-58
2022/01/02 04:52:49;;;;;;;16.25;9.32;;;;;;;;;;5063346;28;20047;-57
2022/01/02 04:55:14;;;;;;;18.15;9.80;;;;;;;;;;5067215;28;20473;-59
2022/01/02 04:57:40;;;;;;;19.92;9.20;;;;;;;;;;5067130;28;20584;-59
2022/01/02 05:00:07;;;;;;;18.60;9.45;;;;;;;;;;5067730;28;20476;-57
2022/01/02 05:02:33;;;;;;;20.88;9.30;;;;;;;;;;5063863;28;20457;-58
2022/01/02 05:04:58;;;;;;;24.70;9.93;;;;;;;;;;5063165;28;20074;-58
2022/01/02 05:07:24;;;;;;;24.27;10.63;;;;;;;;;;5064244;28;20047;-58
2022/01/02 05:09:49;;;;;;;29.75;11.63;;;;;;;;;;5062577;28;20036;-59
2022/01/02 05:12:15;;;;;;;24.05;10.82;;;;;;;;;;5064217;28;20485;-58
2022/01/02 05:14:40;;;;;;;30.88;10.82;;;;;;;;;;5061703;28;20040;-58
2022/01/02 05:17:05;;;;;;;39.13;12.70;;;;;;;;;;5064646;28;20036;-58
2022/01/02 05:19:31;;;;;;;27.10;11.20;;;;;;;;;;5067051;28;20111;-59
2022/01/02 05:21:57;;;;;;;24.77;11.50;;;;;;;;;;5063764;28;20084;-58
2022/01/02 05:24:22;;;;;;;27.20;10.52;;;;;;;;;;5064369;28;20116;-59
2022/01/02 05:26:48;;;;;;;24.27;10.85;;;;;;;;;;5064238;28;20116;-56
2022/01/02 05:29:15;;;;;;;21.77;11.30;;;;;;;;;;5066311;28;20029;-58
2022/01/02 05:31:40;;;;;;;30.23;11.18;;;;;;;;;;5065570;28;20086;-56
2022/01/02 05:34:06;;;;;;;30.23;11.95;;;;;;;;;;5047386;28;20534;-58
2022/01/02 05:36:31;;;;;;;26.77;11.48;;;;;;;;;;5065437;28;20035;-58
2022/01/02 05:38:56;;;;;;;44.30;12.77;;;;;;;;;;5066480;28;20036;-57
2022/01/02 05:41:22;;;;;;;33.53;12.60;;;;;;;;;;5061746;28;20107;-56
2022/01/02 05:43:47;;;;;;;35.17;12.40;;;;;;;;;;5062371;28;20842;-58
2022/01/02 05:46:15;;;;;;;29.38;12.30;;;;;;;;;;5064967;28;20024;-58
2022/01/02 05:48:40;;;;;;;40.90;16.40;;;;;;;;;;5062484;28;20039;-58
2022/01/02 05:51:06;;;;;;;30.45;14.27;;;;;;;;;;5069468;28;20477;-58
2022/01/02 05:53:31;;;;;;;22.00;10.75;;;;;;;;;;5063240;28;20020;-58
2022/01/02 05:55:56;;;;;;;17.73;9.85;;;;;;;;;;5070880;28;20110;-58
2022/01/02 05:58:22;;;;;;;19.58;9.27;;;;;;;;;;5066683;28;20036;-59
2022/01/02 06:00:48;;;;;;;22.88;10.65;;;;;;;;;;5065987;28;20059;-58
2022/01/02 06:03:13;;;;;;;15.70;8.77;;;;;;;;;;5069236;28;20044;-58
2022/01/02 06:05:39;;;;;;;31.25;9.57;;;;;;;;;;5067157;28;20044;-59
2022/01/02 06:08:04;;;;;;;25.50;10.68;;;;;;;;;;5068551;28;20020;-59
2022/01/02 06:10:29;;;;;;;22.08;9.40;;;;;;;;;;5067962;28;20039;-58
2022/01/02 06:12:55;;;;;;;29.95;14.38;;;;;;;;;;5066661;28;20017;-49
2022/01/02 06:15:20;;;;;;;32.38;11.20;;;;;;;;;;5073085;28;20699;-49
2022/01/02 06:17:46;;;;;;;20.92;10.77;;;;;;;;;;5068806;28;20016;-49
2022/01/02 06:20:11;;;;;;;19.00;9.63;;;;;;;;;;5066365;28;20017;-51
2022/01/02 06:22:36;;;;;;;23.17;9.95;;;;;;;;;;5066993;28;20125;-49
2022/01/02 06:25:02;;;;;;;46.03;10.55;;;;;;;;;;5065596;28;20687;-47
2022/01/02 06:27:28;;;;;;;34.47;10.45;;;;;;;;;;5068898;28;20037;-52
2022/01/02 06:29:53;;;;;;;23.98;10.77;;;;;;;;;;5067754;28;20089;-50
2022/01/02 06:32:19;;;;;;;21.75;10.05;;;;;;;;;;5068633;28;20043;-52
2022/01/02 06:34:46;;;;;;;22.58;9.38;;;;;;;;;;5061291;28;20039;-49
2022/01/02 06:37:12;;;;;;;30.30;9.43;;;;;;;;;;5058675;28;20028;-47
2022/01/02 06:39:37;;;;;;;31.00;11.02;;;;;;;;;;5059039;28;20048;-53
2022/01/02 06:42:03;;;;;;;20.33;9.30;;;;;;;;;;5064065;28;20066;-47
2022/01/02 06:44:28;;;;;;;37.65;10.13;;;;;;;;;;5067748;28;20159;-49
2022/01/02 06:46:54;;;;;;;29.90;11.13;;;;;;;;;;5058602;28;20028;-51
2022/01/02 06:49:19;;;;;;;29.83;10.57;;;;;;;;;;5048675;28;20040;-47
2022/01/02 06:51:45;;;;;;;23.55;9.65;;;;;;;;;;5045225;28;20851;-52
2022/01/02 06:54:10;;;;;;;21.38;10.35;;;;;;;;;;5064687;28;20032;-54
2022/01/02 06:56:35;;;;;;;23.83;10.52;;;;;;;;;;5026588;28;20123;-53
2022/01/02 06:59:01;;;;;;;25.17;10.63;;;;;;;;;;5003759;28;21245;-47
2022/01/02 07:01:26;;;;;;;40.00;10.20;;;;;;;;;;4987303;28;20022;-48
2022/01/02 07:03:51;;;;;;;31.67;10.50;;;;;;;;;;4921081;28;20119;-49
2022/01/02 07:06:17;;;;;;;40.50;10.07;;;;;;;;;;4825431;29;21462;-47
2022/01/02 07:08:42;;;;;;;37.20;10.32;;;;;;;;;;4692811;30;20387;-47
2022/01/02 07:13:03;;;;;;;28.02;10.10;;;;;;;;;;5173353;27;20127;-52
2022/01/02 07:15:29;;;;;;;25.77;9.35;;;;;;;;;;5170337;27;20033;-48
2022/01/02 07:17:54;;;;;;;27.90;10.48;;;;;;;;;;5164220;27;20442;-50
2022/01/02 07:20:19;;;;;;;34.92;9.82;;;;;;;;;;5124656;27;20035;-53
2022/01/02 07:22:46;;;;;;;26.23;9.30;;;;;;;;;;5052886;28;20066;-50
2022/01/02 07:25:11;;;;;;;25.75;9.52;;;;;;;;;;4993399;28;20130;-47
2022/01/02 07:27:37;;;;;;;40.88;9.23;;;;;;;;;;4931804;28;20118;-47
2022/01/02 07:30:03;;;;;;;27.05;8.77;;;;;;;;;;4845471;29;20043;-49
2022/01/02 07:32:29;;;;;;;23.52;9.77;;;;;;;;;;4737465;29;20496;-49
2022/01/02 07:37:31;;;;;;;29.48;10.00;;;;;;;;;;5119260;27;20128;-50
2022/01/02 07:39:57;;;;;;;18.50;9.25;;;;;;;;;;5094425;27;20043;-48
2022/01/02 07:42:22;;;;;;;26.48;9.82;;;;;;;;;;5100007;27;20698;-51
2022/01/02 07:44:48;;;;;;;18.20;10.30;;;;;;;;;;5093316;27;20088;-52
2022/01/02 07:47:13;;;;;;;41.22;10.30;;;;;;;;;;5126929;27;20024;-51
2022/01/02 07:49:38;;;;;;;24.85;9.90;;;;;;;;;;5065645;28;20380;-48
2022/01/02 07:52:04;;;;;;;29.90;10.80;;;;;;;;;;5027859;28;20448;-48
2022/01/02 07:54:29;;;;;;;22.92;10.45;;;;;;;;;;4915615;28;20036;-52
2022/01/02 07:56:55;;;;;;;34.65;9.77;;;;;;;;;;4788184;29;20792;-49
2022/01/02 07:59:20;;;;;;;27.52;10.35;;;;;;;;;;4747754;29;20037;-50
2022/01/02 08:03:13;;;;;;;22.25;8.85;;;;;;;;;;5162141;27;20125;-48
2022/01/02 08:05:38;;;;;;;16.58;8.95;;;;;;;;;;5130834;27;20034;-50
2022/01/02 08:08:03;;;;;;;22.30;9.75;;;;;;;;;;5135092;27;20080;-48
2022/01/02 08:10:29;;;;;;;26.27;9.05;;;;;;;;;;5123803;27;20023;-51
2022/01/02 08:12:54;;;;;;;47.83;10.00;;;;;;;;;;5128808;27;20460;-51
2022/01/02 08:15:21;;;;;;;28.30;9.27;;;;;;;;;;5076090;28;20037;-49
2022/01/02 08:17:47;;;;;;;20.98;9.90;;;;;;;;;;5053931;28;20594;-48
2022/01/02 08:20:13;;;;;;;28.30;10.40;;;;;;;;;;4901556;28;20791;-52
2022/01/02 08:22:39;;;;;;;21.63;10.45;;;;;;;;;;4789994;29;20417;-50
2022/01/02 08:25:05;;;;;;;24.92;10.15;;;;;;;;;;4687745;30;20045;-49
2022/01/02 08:29:42;;;;;;;27.30;10.02;;;;;;;;;;5155339;27;20126;-49
2022/01/02 08:32:07;;;;;;;18.58;9.73;;;;;;;;;;5155536;27;20038;-48
2022/01/02 08:34:32;;;;;;;23.13;9.07;;;;;;;;;;5143153;27;20034;-50
2022/01/02 08:36:58;;;;;;;23.75;9.07;;;;;;;;;;5131456;27;20019;-52
2022/01/02 08:39:23;;;;;;;17.77;7.90;;;;;;;;;;5104797;27;20033;-52
2022/01/02 08:41:49;;;;;;;19.20;8.40;;;;;;;;;;4913715;28;1276129;-50
2022/01/02 08:44:14;;;;;;;16.77;8.73;;;;;;;;;;4965518;28;20030;-48
2022/01/02 08:46:39;;;;;;;13.82;7.28;;;;;;;;;;5005478;28;20129;-48
2022/01/02 08:49:05;;;;;;;13.40;7.20;;;;;;;;;;4978984;28;20073;-50
2022/01/02 08:51:30;;;;;;;13.50;7.03;;;;;;;;;;4978653;28;20035;-49
2022/01/02 08:53:56;;;;;;;16.38;7.65;;;;;;;;;;4891723;29;20029;-51
2022/01/02 08:56:21;;;;;;;14.05;7.50;;;;;;;;;;4831228;29;20038;-51
2022/01/02 08:58:46;;;;;;;15.13;7.18;;;;;;;;;;4774071;29;20070;-52
2022/01/02 09:01:12;;;;;;;16.15;7.00;;;;;;;;;;4577876;30;20104;-54
2022/01/02 09:03:37;;;;;;;15.65;7.80;;;;;;;;;;4292042;31;36371;-48
2022/01/02 09:06:03;;;;;;;20.98;9.45;;;;;;;;;;4154916;33;20066;-53
2022/01/02 09:08:28;;;;;;;21.75;9.35;;;;;;;;;;4079605;34;36744;-48
2022/01/02 09:10:54;;;;;;;17.63;8.70;;;;;;;;;;4045308;35;20053;-47
2022/01/02 09:13:23;;;;;;;28.95;9.50;;;;;;;;;;4031136;35;20532;-48
2022/01/02 09:15:48;;;;;;;20.65;9.40;;;;;;;;;;4031772;35;20770;-47
2022/01/02 09:18:14;;;;;;;25.92;9.80;;;;;;;;;;4042174;35;20049;-49
2022/01/02 09:20:40;;;;;;;23.13;9.70;;;;;;;;;;4044525;35;20066;-50
2022/01/02 09:23:06;;;;;;;19.00;9.90;;;;;;;;;;4044289;35;20050;-49
2022/01/02 09:25:31;;;;;;;23.42;9.52;;;;;;;;;;4044716;35;20065;-52
2022/01/02 09:27:56;;;;;;;19.60;8.77;;;;;;;;;;4045103;35;20260;-48
2022/01/02 09:30:22;;;;;;;15.88;8.55;;;;;;;;;;4044124;35;20128;-51
2022/01/02 09:32:47;;;;;;;19.30;9.32;;;;;;;;;;4043538;35;20061;-49
2022/01/02 09:35:13;;;;;;;18.00;9.30;;;;;;;;;;4044968;35;20049;-49
2022/01/02 09:37:38;;;;;;;19.65;8.90;;;;;;;;;;4042920;35;20049;-50
2022/01/02 09:40:06;;;;;;;17.50;9.25;;;;;;;;;;4048241;35;20068;-48
2022/01/02 09:42:33;;;;;;;13.88;8.85;;;;;;;;;;4008937;35;20129;-50
2022/01/02 09:44:59;;;;;;;14.90;8.52;;;;;;;;;;4012302;35;20066;-49
2022/01/02 09:47:24;;;;;;;14.13;8.50;;;;;;;;;;4012413;35;20062;-52
2022/01/02 09:49:50;;;;;;;23.52;9.80;;;;;;;;;;4013030;35;20604;-49
2022/01/02 09:52:17;;;;;;;23.88;10.25;;;;;;;;;;4011359;35;20666;-49
2022/01/02 09:54:43;;;;;;;22.10;10.05;;;;;;;;;;4013105;35;20054;-48
2022/01/02 09:57:08;;;;;;;20.73;9.85;;;;;;;;;;4012072;35;20187;-51
2022/01/02 09:59:34;;;;;;;21.50;10.20;;;;;;;;;;4012654;35;20157;-51
2022/01/02 10:02:01;;;;;;;21.60;10.43;;;;;;;;;;4088804;33;20107;-48
2022/01/02 10:04:37;;;;;;;18.13;10.00;;;;;;;;;;4218585;33;20055;-49
2022/01/02 10:07:04;;;;;;;19.67;10.43;;;;;;;;;;4265049;33;20511;-52
2022/01/02 10:09:32;;;;;;;27.08;11.32;;;;;;;;;;4272901;33;38434;-48
2022/01/02 10:12:20;;;;;;;19.70;10.63;;;;;;;;;;4271663;33;20050;-49
2022/01/02 10:15:07;;;;;;;34.38;10.20;;;;;;;;;;4248714;33;20062;-49
2022/01/02 10:17:54;;;;;;;20.77;10.70;;;;;;;;;;4272610;33;20073;-50
2022/01/02 10:20:21;;;;;;;19.48;11.10;;;;;;;;;;4249670;33;20045;-49
2022/01/02 10:23:03;;;;;;;16.38;9.80;;;;;;;;;;4272364;33;20057;-47
2022/01/02 10:25:39;;;;;;;17.42;10.00;;;;;;;;;;4250000;33;20050;-52
2022/01/02 10:28:19;;;;;;;16.73;9.60;;;;;;;;;;4270937;33;20077;-49
2022/01/02 10:30:47;;;;;;;15.70;9.27;;;;;;;;;;4250883;33;20081;-53
2022/01/02 10:33:12;;;;;;;13.80;9.23;;;;;;;;;;4271260;33;20051;-51
2022/01/02 10:35:38;;;;;;;15.10;8.82;;;;;;;;;;4250133;33;20385;-50
2022/01/02 10:38:04;;;;;;;13.25;8.30;;;;;;;;;;4248755;33;20505;-48
2022/01/02 10:40:41;;;;;;;12.40;8.35;;;;;;;;;;4249217;33;20074;-51
2022/01/02 10:43:09;;;;;;;14.75;9.05;;;;;;;;;;4277985;33;20080;-52
2022/01/02 10:45:38;;;;;;;16.60;8.48;;;;;;;;;;4276984;33;20052;-48
2022/01/02 10:48:06;;;;;;;12.15;8.38;;;;;;;;;;4277383;33;20054;-49
2022/01/02 10:50:32;;;;;;;11.18;8.00;;;;;;;;;;4278232;33;20041;-48
2022/01/02 10:53:09;;;;;;;11.07;7.82;;;;;;;;;;4275234;33;20057;-49
2022/01/02 10:55:35;;;;;;;11.07;7.53;;;;;;;;;;4277283;33;20382;-49
2022/01/02 10:58:02;;;;;;;13.23;8.10;;;;;;;;;;4300246;33;20080;-52
2022/01/02 11:00:27;;;;;;;14.18;8.80;;;;;;;;;;4283274;32;20131;-50
2022/01/02 11:02:54;;;;;;;13.05;8.23;;;;;;;;;;4408262;32;20134;-50
2022/01/02 11:05:21;;;;;;;12.63;8.82;;;;;;;;;;4520984;31;20054;-53
2022/01/02 11:07:49;;;;;;;13.68;8.10;;;;;;;;;;4544077;31;20034;-53
2022/01/02 11:10:19;;;;;;;12.10;8.07;;;;;;;;;;4516054;31;20134;-54
2022/01/02 11:12:47;;;;;;;11.63;8.00;;;;;;;;;;4514743;31;20053;-50
2022/01/02 11:15:15;;;;;;;13.90;8.98;;;;;;;;;;4514583;31;20905;-52
2022/01/02 11:17:40;;;;;;;15.23;9.10;;;;;;;;;;4513349;31;20053;-47
2022/01/02 11:20:15;;;;;;;14.05;9.40;;;;;;;;;;4513440;31;20047;-48
2022/01/02 11:23:07;;;;;;;17.98;10.15;;;;;;;;;;4514050;31;20046;-54
2022/01/02 11:25:42;;;;;;;18.00;10.77;;;;;;;;;;4515240;31;20046;-48
2022/01/02 11:28:41;;;;;;;15.63;9.52;;;;;;;;;;4513695;31;20428;-48
2022/01/02 11:31:09;;;;;;;18.63;10.75;;;;;;;;;;4527748;31;20076;-51
2022/01/02 11:33:40;;;;;;;18.23;10.75;;;;;;;;;;4515204;31;20171;-49
2022/01/02 11:36:35;;;;;;;13.57;9.75;;;;;;;;;;4514986;31;20085;-50
2022/01/02 11:39:07;;;;;;;12.02;8.45;;;;;;;;;;4511950;31;20038;-47
2022/01/02 11:41:36;;;;;;;16.30;8.65;;;;;;;;;;4523455;31;20068;-49
2022/01/02 11:44:02;;;;;;;12.35;8.38;;;;;;;;;;4497926;31;20039;-47
2022/01/02 11:46:28;;;;;;;11.23;8.18;;;;;;;;;;4498676;31;20066;-49
2022/01/02 11:49:03;;;;;;;13.90;8.00;;;;;;;;;;4497710;31;20118;-49
2022/01/02 11:51:47;;;;;;;15.18;8.50;;;;;;;;;;4510310;31;20136;-52
2022/01/02 11:54:27;;;;;;;10.75;7.60;;;;;;;;;;4497066;31;20136;-49
2022/01/02 11:56:53;;;;;;;13.85;8.48;;;;;;;;;;4496976;31;20050;-47
2022/01/02 11:59:46;;;;;;;16.55;8.50;;;;;;;;;;4497680;31;20027;-48
2022/01/02 12:02:14;;;;;;;13.90;8.82;;;;;;;;;;4593656;30;20085;-51
2022/01/02 12:07:34;;;;;;;11.50;8.98;;;;;;;;;;4779180;29;20046;-48
2022/01/02 12:10:18;;;;;;;16.25;9.35;;;;;;;;;;4780677;29;20050;-52
2022/01/02 12:13:18;;;;;;;15.77;9.30;;;;;;;;;;4781042;29;20579;-52
2022/01/02 12:15:43;;;;;;;15.30;8.93;;;;;;;;;;4780985;29;20059;-53
2022/01/02 12:18:31;;;;;;;13.73;8.45;;;;;;;;;;4783696;29;20085;-53
2022/01/02 12:20:57;;;;;;;11.27;7.82;;;;;;;;;;4781465;29;20054;-50
2022/01/02 12:23:41;;;;;;;13.65;8.68;;;;;;;;;;4781479;29;20031;-52
2022/01/02 12:26:10;;;;;;;13.18;8.35;;;;;;;;;;4780555;29;20031;-51
2022/01/02 12:28:41;;;;;;;12.70;8.32;;;;;;;;;;4780718;29;20991;-53
2022/01/02 12:31:08;;;;;;;11.07;8.15;;;;;;;;;;4782185;29;20433;-48
2022/01/02 12:33:35;;;;;;;13.48;8.02;;;;;;;;;;4778186;29;20035;-52
2022/01/02 12:36:15;;;;;;;11.23;7.95;;;;;;;;;;4778879;29;20043;-51
2022/01/02 12:38:56;;;;;;;12.63;7.72;;;;;;;;;;4779115;29;20054;-49
2022/01/02 12:41:30;;;;;;;10.82;6.78;;;;;;;;;;4783874;29;20038;-52
2022/01/02 12:43:56;;;;;;;;;;;;;;;;;;4799222;29;20552;-45
2022/01/02 12:46:32;;;;;;;11.05;7.07;;;;;;;;;;4797286;29;19974;-50
2022/01/02 12:48:57;;;;;;;10.63;6.55;;;;;;;;;;4797021;29;20049;-47
2022/01/02 12:51:28;;;;;;;11.07;7.05;;;;;;;;;;4795668;29;20035;-48
2022/01/02 12:54:12;;;;;;;10.77;6.88;;;;;;;;;;4797517;29;20050;-50
2022/01/02 12:56:43;;;;;;;8.63;6.70;;;;;;;;;;4795409;29;20030;-48
2022/01/02 12:59:25;;;;;;;8.48;6.47;;;;;;;;;;4795074;29;20038;-48
2022/01/02 13:01:54;;;;;;;10.18;7.35;;;;;;;;;;4823100;29;21248;-49
2022/01/02 13:04:22;;;;;;;11.32;7.38;;;;;;;;;;4865377;29;20035;-52
2022/01/02 13:06:52;;;;;;;11.52;7.60;;;;;;;;;;4916851;29;20475;-49
2022/01/02 13:09:27;;;;;;;10.27;7.05;;;;;;;;;;4919285;29;20039;-48
2022/01/02 13:11:53;;;;;;;9.43;6.82;;;;;;;;;;4921912;29;20044;-48
2022/01/02 13:14:56;;;;;;;8.35;6.45;;;;;;;;;;4923613;29;20385;-50
2022/01/02 13:17:23;;;;;;;13.73;7.20;;;;;;;;;;4923678;29;20049;-47
2022/01/02 13:20:01;;;;;;;10.98;7.40;;;;;;;;;;4924944;29;20524;-51
2022/01/02 13:22:28;;;;;;;13.25;7.45;;;;;;;;;;4925526;29;20365;-52
2022/01/02 13:24:56;;;;;;;12.25;7.50;;;;;;;;;;4924618;29;20035;-49
2022/01/02 13:27:25;;;;;;;11.32;7.85;;;;;;;;;;4922594;29;20063;-47
2022/01/02 13:29:56;;;;;;;9.60;7.28;;;;;;;;;;4927282;29;20567;-50
2022/01/02 13:32:22;;;;;;;10.82;6.93;;;;;;;;;;4925144;29;20034;-47
2022/01/02 13:35:09;;;;;;;10.13;7.25;;;;;;;;;;4925949;29;20122;-49
2022/01/02 13:37:45;;;;;;;9.82;6.57;;;;;;;;;;4924026;29;20099;-48
2022/01/02 13:40:16;;;;;;;7.25;5.80;;;;;;;;;;4926195;29;20032;-46
2022/01/02 13:42:44;;;;;;;9.02;6.28;;;;;;;;;;4927893;29;20059;-49
2022/01/02 13:45:15;;;;;;;8.80;5.40;;;;;;;;;;4920849;29;20040;-51
2022/01/02 13:47:41;;;;;;;7.75;5.47;;;;;;;;;;4893189;29;20040;-54
2022/01/02 13:50:08;;;;;;;8.60;6.30;;;;;;;;;;4887406;29;20164;-50
2022/01/02 13:52:52;;;;;;;9.82;6.40;;;;;;;;;;4903782;29;20020;-49
2022/01/02 13:55:17;;;;;;;8.63;5.82;;;;;;;;;;4860097;29;20052;-48
2022/01/02 13:57:43;;;;;;;11.05;5.90;;;;;;;;;;4787937;29;20394;-52
2022/01/02 14:00:19;;;;;;;8.88;5.57;;;;;;;;;;4732393;29;20044;-51
2022/01/02 14:02:51;;;;;;;11.35;6.22;;;;;;;;;;4640842;30;20119;-52
2022/01/02 14:07:50;;;;;;;7.57;5.63;;;;;;;;;;5152606;27;20126;-49
2022/01/02 14:10:17;;;;;;;8.00;5.75;;;;;;;;;;5110722;27;20115;-49
2022/01/02 14:12:43;;;;;;;8.43;6.28;;;;;;;;;;5145603;27;21376;-49
2022/01/02 14:15:26;;;;;;;7.63;5.80;;;;;;;;;;5118793;27;20460;-51
2022/01/02 14:17:52;;;;;;;8.57;5.70;;;;;;;;;;5078853;28;20123;-47
2022/01/02 14:20:20;;;;;;;9.57;5.68;;;;;;;;;;4964151;28;20548;-52
2022/01/02 14:22:47;;;;;;;9.27;5.65;;;;;;;;;;4909978;28;20035;-49
2022/01/02 14:25:14;;;;;;;8.00;5.40;;;;;;;;;;4894817;29;20167;-50
2022/01/02 14:27:45;;;;;;;10.95;5.75;;;;;;;;;;4800239;29;20369;-49
2022/01/02 14:32:36;;;;;;;8.65;5.50;;;;;;;;;;5155042;27;20377;-48
2022/01/02 14:35:03;;;;;;;8.23;5.57;;;;;;;;;;5132004;27;20482;-51
2022/01/02 14:37:30;;;;;;;8.30;4.90;;;;;;;;;;5135190;27;20035;-48
2022/01/02 14:39:56;;;;;;;7.85;5.40;;;;;;;;;;5113367;27;20032;-51
2022/01/02 14:42:22;;;;;;;9.38;5.35;;;;;;;;;;5066732;28;20025;-51
2022/01/02 14:44:48;;;;;;;6.68;4.75;;;;;;;;;;5032759;28;20030;-50
2022/01/02 14:47:15;;;;;;;8.38;5.22;;;;;;;;;;4924386;28;20477;-48
2022/01/02 14:49:41;;;;;;;8.30;5.43;;;;;;;;;;4826486;29;20038;-51
2022/01/02 14:52:07;;;;;;;8.30;5.40;;;;;;;;;;4815257;29;20176;-49
2022/01/02 14:54:33;;;;;;;8.40;5.32;;;;;;;;;;4735387;29;20154;-51
2022/01/02 14:59:10;;;;;;;7.50;4.90;;;;;;;;;;5163737;27;20126;-53